Terminal Aerodrome Forecast
Issued by NWS

Home | Current Version | Previous Version | Text Only | Print | Product List | Glossary On
Versions: 1 2 3 4 5 6 7 8 9 10 11 12 13 14 15 16 17
000
FTAK31 PAJN 271700
TAFAKT
TAF
PAKT 271736Z 2718/2818 14006KT P6SM VCSH FEW030 BKN060
     FM272100 14008KT P6SM BKN060
     FM280200 VRB05KT P6SM SCT030 SCT060
     FM280900 VRB03KT P6SM SCT005 BKN035 BKN080
     FM281700 13007KT P6SM FEW010 BKN035 OVC070
      AMD LTD TO CLD VIS AND WIND 2806/2815=

USA.gov is the U.S. government's official web portal to all federal, state and local government web resources and services.